Kljuchi, Russia
Current Conditions -  °F | °C
As of 6:00 PM on Wednesday 22 Oct 2014 (Local Time) from UHPP Reporting Station
Clear Clear  
Wind Chill: 30°   Ceiling: Unl
Heat Index: 37°   Visibility: 6mi
Dew Point: 10°   Wind: 11mph
Humidity: 33%   Direction: 290°WNW
Pressure: 29.62"   Gusts: NA
Location:  56.32°N, 160.83°E
Report Text: UHPP 220600Z 29005MPS 9999 NSC 03/M12 Q1003 NOSIG RMKQFE749/0999 SC070
Loading
Personal Weather Stations






























Interactive Weather Map
Tropical Storm Tracking
New forecast layout! Learn more

10-Day Weather Forecast

Advertisements
Track Severe Weather on mobile